Time;durP1;ratioP1;P1;durP2;ratioP2;P2;SDS_P1;SDS_P2;PMS_P1;PMS_P2;Temp;Humidity;BMP_temperature;BMP_pressure;BME280_temperature;BME280_humidity;BME280_pressure;Samples;Min_cycle;Max_cycle;Signal;HPM_P1;HPM_P2
2023/05/24 00:01:55;;;;;;;;;;;;;;;;;;5075683;28;20277;-59
2023/05/24 00:04:23;;;;;;;;;;;;;;;;;;5075518;28;19927;-59
2023/05/24 00:06:50;;;;;;;;;;;;;;;;;;5058137;28;20384;-60
2023/05/24 00:09:16;;;;;;;;;;;;;;;;;;5054273;28;19928;-59
2023/05/24 00:11:46;;;;;;;;;;;;;;;;;;5053492;28;19927;-59
2023/05/24 00:14:15;;;;;;;;;;;;;;;;;;5054845;28;20369;-59
2023/05/24 00:16:41;;;;;;;;;;;;;;;;;;5066476;28;19928;-59
2023/05/24 00:19:09;;;;;;;;;;;;;;;;;;5075214;28;19932;-59
2023/05/24 00:21:36;;;;;;;;;;;;;;;;;;5061504;28;19921;-59
2023/05/24 00:24:02;;;;;;;;;;;;;;;;;;5054595;28;19921;-60
2023/05/24 00:26:29;;;;;;;;;;;;;;;;;;5054203;28;20282;-59
2023/05/24 00:28:55;;;;;;;;;;;;;;;;;;5055074;28;19921;-60
2023/05/24 00:31:22;;;;;;;;;;;;;;;;;;5054747;28;20301;-59
2023/05/24 00:33:48;;;;;;;;;;;;;;;;;;5054655;28;19924;-59
2023/05/24 00:36:15;;;;;;;;;;;;;;;;;;5064597;28;19927;-60
2023/05/24 00:38:42;;;;;;;;;;;;;;;;;;5072380;28;19954;-60
2023/05/24 00:41:08;;;;;;;;;;;;;;;;;;5053853;28;19932;-60
2023/05/24 00:43:35;;;;;;;;;;;;;;;;;;5054667;28;19928;-59
2023/05/24 00:46:05;;;;;;;;;;;;;;;;;;5059702;28;19920;-59
2023/05/24 00:48:31;;;;;;;;;;;;;;;;;;5074377;28;19924;-59
2023/05/24 00:50:58;;;;;;;;;;;;;;;;;;5054304;28;19929;-59
2023/05/24 00:53:24;;;;;;;;;;;;;;;;;;5060110;28;19994;-59
2023/05/24 00:55:51;;;;;;;;;;;;;;;;;;5073246;28;20288;-59
2023/05/24 00:58:17;;;;;;;;;;;;;;;;;;5054755;28;19921;-59
2023/05/24 01:00:44;;;;;;;;;;;;;;;;;;5053912;28;20350;-59
2023/05/24 01:03:10;;;;;;;;;;;;;;;;;;5054014;28;20293;-60
2023/05/24 01:05:37;;;;;;;;;;;;;;;;;;5054323;28;19927;-59
2023/05/24 01:08:03;;;;;;;;;;;;;;;;;;5067216;28;19921;-59
2023/05/24 01:10:30;;;;;;;;;;;;;;;;;;5074260;28;20370;-60
2023/05/24 01:12:56;;;;;;;;;;;;;;;;;;5060593;28;19920;-59
2023/05/24 01:15:23;;;;;;;;;;;;;;;;;;5053956;28;19920;-59
2023/05/24 01:17:50;;;;;;;;;;;;;;;;;;5053325;28;19920;-59
2023/05/24 01:20:17;;;;;;;;;;;;;;;;;;5054141;28;20289;-59
2023/05/24 01:22:43;;;;;;;;;;;;;;;;;;5054110;28;19920;-60
2023/05/24 01:25:10;;;;;;;;;;;;;;;;;;5053927;28;20285;-60
2023/05/24 01:27:36;;;;;;;;;;;;;;;;;;5062654;28;19928;-59
2023/05/24 01:30:03;;;;;;;;;;;;;;;;;;5059052;28;20305;-60
2023/05/24 01:32:29;;;;;;;;;;;;;;;;;;5053427;28;20369;-60
2023/05/24 01:34:56;;;;;;;;;;;;;;;;;;5053117;28;20281;-59
2023/05/24 01:37:22;;;;;;;;;;;;;;;;;;5053950;28;19920;-59
2023/05/24 01:39:49;;;;;;;;;;;;;;;;;;5053886;28;20034;-59
2023/05/24 01:42:15;;;;;;;;;;;;;;;;;;5053251;28;19920;-60
2023/05/24 01:44:42;;;;;;;;;;;;;;;;;;5053030;28;19921;-59
2023/05/24 01:47:08;;;;;;;;;;;;;;;;;;5053431;28;19924;-60
2023/05/24 01:49:35;;;;;;;;;;;;;;;;;;5062070;28;19920;-59
2023/05/24 01:52:01;;;;;;;;;;;;;;;;;;5072344;28;19927;-60
2023/05/24 01:54:28;;;;;;;;;;;;;;;;;;5073620;28;20266;-59
2023/05/24 01:56:54;;;;;;;;;;;;;;;;;;5071650;28;19942;-60
2023/05/24 01:59:21;;;;;;;;;;;;;;;;;;5053108;28;19943;-59
2023/05/24 02:01:47;;;;;;;;;;;;;;;;;;5055010;28;19921;-59
2023/05/24 02:04:14;;;;;;;;;;;;;;;;;;5073191;28;19920;-59
2023/05/24 02:06:40;;;;;;;;;;;;;;;;;;5073533;28;19927;-59
2023/05/24 02:09:07;;;;;;;;;;;;;;;;;;5072856;28;19920;-59
2023/05/24 02:11:33;;;;;;;;;;;;;;;;;;5073314;28;19927;-59
2023/05/24 02:14:00;;;;;;;;;;;;;;;;;;5052299;28;19924;-59
2023/05/24 02:16:29;;;;;;;;;;;;;;;;;;5053098;28;19935;-59
2023/05/24 02:18:56;;;;;;;;;;;;;;;;;;5053363;28;19936;-59
2023/05/24 02:21:24;;;;;;;;;;;;;;;;;;5053237;28;19920;-59
2023/05/24 02:23:50;;;;;;;;;;;;;;;;;;5067021;28;19944;-59
2023/05/24 02:26:18;;;;;;;;;;;;;;;;;;5053410;28;19928;-59
2023/05/24 02:28:44;;;;;;;;;;;;;;;;;;5066725;28;19921;-59
2023/05/24 02:31:11;;;;;;;;;;;;;;;;;;5073410;28;19927;-60
2023/05/24 02:33:37;;;;;;;;;;;;;;;;;;5056260;28;19928;-60
2023/05/24 02:36:04;;;;;;;;;;;;;;;;;;5053622;28;19928;-58
2023/05/24 02:38:33;;;;;;;;;;;;;;;;;;5053468;28;20396;-58
2023/05/24 02:41:00;;;;;;;;;;;;;;;;;;5053277;28;19932;-58
2023/05/24 02:43:26;;;;;;;;;;;;;;;;;;5052789;28;19921;-58
2023/05/24 02:45:53;;;;;;;;;;;;;;;;;;5053583;28;19928;-58
2023/05/24 02:48:19;;;;;;;;;;;;;;;;;;5053083;28;19925;-59
2023/05/24 02:50:46;;;;;;;;;;;;;;;;;;5071940;28;19920;-59
2023/05/24 02:53:12;;;;;;;;;;;;;;;;;;5072130;28;19990;-58
2023/05/24 02:55:39;;;;;;;;;;;;;;;;;;5072912;28;19932;-58
2023/05/24 02:58:07;;;;;;;;;;;;;;;;;;5063311;28;20365;-58
2023/05/24 03:00:35;;;;;;;;;;;;;;;;;;5052879;28;19921;-58
2023/05/24 03:03:02;;;;;;;;;;;;;;;;;;5052019;28;19921;-58
2023/05/24 03:05:28;;;;;;;;;;;;;;;;;;5052944;28;19921;-58
2023/05/24 03:07:55;;;;;;;;;;;;;;;;;;5052880;28;19920;-59
2023/05/24 03:10:21;;;;;;;;;;;;;;;;;;5052710;28;19927;-58
2023/05/24 03:12:48;;;;;;;;;;;;;;;;;;5059652;28;19928;-58
2023/05/24 03:15:15;;;;;;;;;;;;;;;;;;5052886;28;19921;-58
2023/05/24 03:17:41;;;;;;;;;;;;;;;;;;5052224;28;19921;-58
2023/05/24 03:20:10;;;;;;;;;;;;;;;;;;5052737;28;20285;-58
2023/05/24 03:22:37;;;;;;;;;;;;;;;;;;5059060;28;19943;-58
2023/05/24 03:25:03;;;;;;;;;;;;;;;;;;5075872;28;19928;-59
2023/05/24 03:27:30;;;;;;;;;;;;;;;;;;5071905;28;20304;-58
2023/05/24 03:29:56;;;;;;;;;;;;;;;;;;5056297;28;19928;-58
2023/05/24 03:32:23;;;;;;;;;;;;;;;;;;5059891;28;20379;-58
2023/05/24 03:34:50;;;;;;;;;;;;;;;;;;5076189;28;20066;-58
2023/05/24 03:37:16;;;;;;;;;;;;;;;;;;5076147;28;20381;-59
2023/05/24 03:39:43;;;;;;;;;;;;;;;;;;5075897;28;19920;-58
2023/05/24 03:42:09;;;;;;;;;;;;;;;;;;5073655;28;20389;-58
2023/05/24 03:44:36;;;;;;;;;;;;;;;;;;5055299;28;19928;-58
2023/05/24 03:47:02;;;;;;;;;;;;;;;;;;5055960;28;19944;-60
2023/05/24 03:49:29;;;;;;;;;;;;;;;;;;5063788;28;19928;-59
2023/05/24 03:51:55;;;;;;;;;;;;;;;;;;5075488;28;19927;-59
2023/05/24 03:54:22;;;;;;;;;;;;;;;;;;5075616;28;20423;-58
2023/05/24 03:56:48;;;;;;;;;;;;;;;;;;5075469;28;19921;-58
2023/05/24 03:59:17;;;;;;;;;;;;;;;;;;5057217;28;19921;-58
2023/05/24 04:01:43;;;;;;;;;;;;;;;;;;5055598;28;19920;-58
2023/05/24 04:04:10;;;;;;;;;;;;;;;;;;5072949;28;19920;-58
2023/05/24 04:06:36;;;;;;;;;;;;;;;;;;5075469;28;19921;-58
2023/05/24 04:09:04;;;;;;;;;;;;;;;;;;5075209;28;19927;-58
2023/05/24 04:11:31;;;;;;;;;;;;;;;;;;5075349;28;19925;-58
2023/05/24 04:13:59;;;;;;;;;;;;;;;;;;5057262;28;19935;-59
2023/05/24 04:16:27;;;;;;;;;;;;;;;;;;5055321;28;20271;-58
2023/05/24 04:18:53;;;;;;;;;;;;;;;;;;5066886;28;19920;-59
2023/05/24 04:21:20;;;;;;;;;;;;;;;;;;5074564;28;20392;-59
2023/05/24 04:23:46;;;;;;;;;;;;;;;;;;5073759;28;19920;-60
2023/05/24 04:26:14;;;;;;;;;;;;;;;;;;5073552;28;19921;-60
2023/05/24 04:28:41;;;;;;;;;;;;;;;;;;5061848;28;19921;-60
2023/05/24 04:31:08;;;;;;;;;;;;;;;;;;5056592;28;19924;-59
2023/05/24 04:33:35;;;;;;;;;;;;;;;;;;5062259;28;20292;-59
2023/05/24 04:36:01;;;;;;;;;;;;;;;;;;5075027;28;19920;-60
2023/05/24 04:38:31;;;;;;;;;;;;;;;;;;5068813;28;19928;-59
2023/05/24 04:40:57;;;;;;;;;;;;;;;;;;5075051;28;19920;-59
2023/05/24 04:43:25;;;;;;;;;;;;;;;;;;5072157;28;19920;-59
2023/05/24 04:45:52;;;;;;;;;;;;;;;;;;5062837;28;19921;-59
2023/05/24 04:48:20;;;;;;;;;;;;;;;;;;5058432;28;20320;-60
2023/05/24 04:50:46;;;;;;;;;;;;;;;;;;5057085;28;19921;-59
2023/05/24 04:53:13;;;;;;;;;;;;;;;;;;5055056;28;19928;-59
2023/05/24 04:55:39;;;;;;;;;;;;;;;;;;5064711;28;19920;-59
2023/05/24 04:58:06;;;;;;;;;;;;;;;;;;5057236;28;19921;-58
2023/05/24 05:00:32;;;;;;;;;;;;;;;;;;5068251;28;20241;-58
2023/05/24 05:02:59;;;;;;;;;;;;;;;;;;5073613;28;19920;-58
2023/05/24 05:05:25;;;;;;;;;;;;;;;;;;5054149;28;19920;-60
2023/05/24 05:07:52;;;;;;;;;;;;;;;;;;5056927;28;19920;-60
2023/05/24 05:10:18;;;;;;;;;;;;;;;;;;5061184;28;19928;-60
2023/05/24 05:12:45;;;;;;;;;;;;;;;;;;5063019;28;20265;-60
2023/05/24 05:15:12;;;;;;;;;;;;;;;;;;5064615;28;19920;-60
2023/05/24 05:17:38;;;;;;;;;;;;;;;;;;5073738;28;19924;-60
2023/05/24 05:20:05;;;;;;;;;;;;;;;;;;5066334;28;19927;-59
2023/05/24 05:22:32;;;;;;;;;;;;;;;;;;5070800;28;20266;-60
2023/05/24 05:24:58;;;;;;;;;;;;;;;;;;5065601;28;19927;-59
2023/05/24 05:27:25;;;;;;;;;;;;;;;;;;5057572;28;19951;-59
2023/05/24 05:29:51;;;;;;;;;;;;;;;;;;5066098;28;19921;-59
2023/05/24 05:32:18;;;;;;;;;;;;;;;;;;5055847;28;19924;-58
2023/05/24 05:34:44;;;;;;;;;;;;;;;;;;5062953;28;19920;-58
2023/05/24 05:37:11;;;;;;;;;;;;;;;;;;5067268;28;19920;-59
2023/05/24 05:39:37;;;;;;;;;;;;;;;;;;5063377;28;19920;-59
2023/05/24 05:42:04;;;;;;;;;;;;;;;;;;5052915;28;19920;-59
2023/05/24 05:44:30;;;;;;;;;;;;;;;;;;5068903;28;20285;-58
2023/05/24 05:46:57;;;;;;;;;;;;;;;;;;5073094;28;19920;-59
2023/05/24 05:49:23;;;;;;;;;;;;;;;;;;5073392;28;19929;-59
2023/05/24 05:51:51;;;;;;;;;;;;;;;;;;5070753;28;19921;-59
2023/05/24 05:54:18;;;;;;;;;;;;;;;;;;5073257;28;19935;-59
2023/05/24 05:56:46;;;;;;;;;;;;;;;;;;5073119;28;19920;-59
2023/05/24 05:59:13;;;;;;;;;;;;;;;;;;5055871;28;20446;-58
2023/05/24 06:01:39;;;;;;;;;;;;;;;;;;5059995;28;19928;-60
2023/05/24 06:04:06;;;;;;;;;;;;;;;;;;5053332;28;19927;-60
2023/05/24 06:06:33;;;;;;;;;;;;;;;;;;5059423;28;19928;-61
2023/05/24 06:08:59;;;;;;;;;;;;;;;;;;5056245;28;19928;-59
2023/05/24 06:11:26;;;;;;;;;;;;;;;;;;5065670;28;19928;-59
2023/05/24 06:13:53;;;;;;;;;;;;;;;;;;5052989;28;19928;-58
2023/05/24 06:16:20;;;;;;;;;;;;;;;;;;5052789;28;20285;-59
2023/05/24 06:18:47;;;;;;;;;;;;;;;;;;5052016;28;20318;-58
2023/05/24 06:21:13;;;;;;;;;;;;;;;;;;5061701;28;19920;-61
2023/05/24 06:23:40;;;;;;;;;;;;;;;;;;5063511;28;19920;-60
2023/05/24 06:26:07;;;;;;;;;;;;;;;;;;5068775;28;19927;-60
2023/05/24 06:28:43;;;;;;;;;;;;;;;;;;5054661;28;19931;-59
2023/05/24 06:31:09;;;;;;;;;;;;;;;;;;5055957;28;19925;-60
2023/05/24 06:33:36;;;;;;;;;;;;;;;;;;5062979;28;19920;-59
2023/05/24 06:36:02;;;;;;;;;;;;;;;;;;5058439;28;19924;-59
2023/05/24 06:38:31;;;;;;;;;;;;;;;;;;5060913;28;19924;-61
2023/05/24 06:40:58;;;;;;;;;;;;;;;;;;5058722;28;19928;-59
2023/05/24 06:43:24;;;;;;;;;;;;;;;;;;5058313;28;19928;-59
2023/05/24 06:45:51;;;;;;;;;;;;;;;;;;5055394;28;19924;-59
2023/05/24 06:48:17;;;;;;;;;;;;;;;;;;5053648;28;19921;-59
2023/05/24 06:50:44;;;;;;;;;;;;;;;;;;5057107;28;20283;-59
2023/05/24 06:53:10;;;;;;;;;;;;;;;;;;5060037;28;19920;-59
2023/05/24 06:55:37;;;;;;;;;;;;;;;;;;5055829;28;20285;-59
2023/05/24 06:58:05;;;;;;;;;;;;;;;;;;5062400;28;19929;-59
2023/05/24 07:00:32;;;;;;;;;;;;;;;;;;5069370;28;20024;-59
2023/05/24 07:02:59;;;;;;;;;;;;;;;;;;5061785;28;19939;-59
2023/05/24 07:05:25;;;;;;;;;;;;;;;;;;5065161;28;19920;-59
2023/05/24 07:07:52;;;;;;;;;;;;;;;;;;5062209;28;20292;-59
2023/05/24 07:10:18;;;;;;;;;;;;;;;;;;5060680;28;19936;-60
2023/05/24 07:12:45;;;;;;;;;;;;;;;;;;5057897;28;19924;-60
2023/05/24 07:15:12;;;;;;;;;;;;;;;;;;5066252;28;19920;-60
2023/05/24 07:17:38;;;;;;;;;;;;;;;;;;5056090;28;20639;-60
2023/05/24 07:20:09;;;;;;;;;;;;;;;;;;5064994;28;19924;-60
2023/05/24 07:22:35;;;;;;;;;;;;;;;;;;5068114;28;19921;-60
2023/05/24 07:25:02;;;;;;;;;;;;;;;;;;5072760;28;20282;-60
2023/05/24 07:27:28;;;;;;;;;;;;;;;;;;5071192;28;20301;-60
2023/05/24 07:29:55;;;;;;;;;;;;;;;;;;5056837;28;19931;-60
2023/05/24 07:32:21;;;;;;;;;;;;;;;;;;5059648;28;19929;-60
2023/05/24 07:34:49;;;;;;;;;;;;;;;;;;5066042;28;19932;-60
2023/05/24 07:37:16;;;;;;;;;;;;;;;;;;5064405;28;19924;-60
2023/05/24 07:39:42;;;;;;;;;;;;;;;;;;5068071;28;19928;-60
2023/05/24 07:42:09;;;;;;;;;;;;;;;;;;5069918;28;19933;-60
2023/05/24 07:44:36;;;;;;;;;;;;;;;;;;5055719;28;19928;-60
2023/05/24 07:47:02;;;;;;;;;;;;;;;;;;5061478;28;19928;-61
2023/05/24 07:49:29;;;;;;;;;;;;;;;;;;5065361;28;19920;-60
2023/05/24 07:51:57;;;;;;;;;;;;;;;;;;5068080;28;19935;-59
2023/05/24 07:54:24;;;;;;;;;;;;;;;;;;5069198;28;19928;-60
2023/05/24 07:56:50;;;;;;;;;;;;;;;;;;5059437;28;19920;-60
2023/05/24 07:59:17;;;;;;;;;;;;;;;;;;5060182;28;19926;-60
2023/05/24 08:01:44;;;;;;;;;;;;;;;;;;5056526;28;19929;-60
2023/05/24 08:04:10;;;;;;;;;;;;;;;;;;5057675;28;19927;-60
2023/05/24 08:06:37;;;;;;;;;;;;;;;;;;5060722;28;19929;-59
2023/05/24 08:09:04;;;;;;;;;;;;;;;;;;5067141;28;19921;-58
2023/05/24 08:11:31;;;;;;;;;;;;;;;;;;5065028;28;19921;-59
2023/05/24 08:13:57;;;;;;;;;;;;;;;;;;5055965;28;19950;-59
2023/05/24 08:16:24;;;;;;;;;;;;;;;;;;5066743;28;19928;-59
2023/05/24 08:18:50;;;;;;;;;;;;;;;;;;5071391;28;19928;-59
2023/05/24 08:21:17;;;;;;;;;;;;;;;;;;5067946;28;19931;-58
2023/05/24 08:23:44;;;;;;;;;;;;;;;;;;5065629;28;19924;-59
2023/05/24 08:26:10;;;;;;;;;;;;;;;;;;5064904;28;19920;-59
2023/05/24 08:28:37;;;;;;;;;;;;;;;;;;5057084;28;19925;-59
2023/05/24 08:31:03;;;;;;;;;;;;;;;;;;5056729;28;19931;-60
2023/05/24 08:33:30;;;;;;;;;;;;;;;;;;5068663;28;20396;-60
2023/05/24 08:35:56;;;;;;;;;;;;;;;;;;5056978;28;19921;-60
2023/05/24 08:38:23;;;;;;;;;;;;;;;;;;5070459;28;19927;-60
2023/05/24 08:40:49;;;;;;;;;;;;;;;;;;5059072;28;19920;-60
2023/05/24 08:43:16;;;;;;;;;;;;;;;;;;5053410;28;19932;-60
2023/05/24 08:45:42;;;;;;;;;;;;;;;;;;5062518;28;19920;-60
2023/05/24 08:48:09;;;;;;;;;;;;;;;;;;5068375;28;19920;-60
2023/05/24 08:50:35;;;;;;;;;;;;;;;;;;5066920;28;19924;-60
2023/05/24 08:53:02;;;;;;;;;;;;;;;;;;5070494;28;19920;-59
2023/05/24 08:55:28;;;;;;;;;;;;;;;;;;5064740;28;20265;-59
2023/05/24 08:57:55;;;;;;;;;;;;;;;;;;5066371;28;19932;-59
2023/05/24 09:00:22;;;;;;;;;;;;;;;;;;5053605;28;19921;-60
2023/05/24 09:02:49;;;;;;;;;;;;;;;;;;5065834;28;19960;-60
2023/05/24 09:05:16;;;;;;;;;;;;;;;;;;5056107;28;20380;-60
2023/05/24 09:07:42;;;;;;;;;;;;;;;;;;5059631;28;19924;-60
2023/05/24 09:10:09;;;;;;;;;;;;;;;;;;5067652;28;19990;-59
2023/05/24 09:12:36;;;;;;;;;;;;;;;;;;5065479;28;20304;-60
2023/05/24 09:15:02;;;;;;;;;;;;;;;;;;5062256;28;19920;-60
2023/05/24 09:17:29;;;;;;;;;;;;;;;;;;5060501;28;20273;-60
2023/05/24 09:19:57;;;;;;;;;;;;;;;;;;5069199;28;19928;-60
2023/05/24 09:22:24;;;;;;;;;;;;;;;;;;5061577;28;19927;-60
2023/05/24 09:24:51;;;;;;;;;;;;;;;;;;5055095;28;19921;-59
2023/05/24 09:27:20;;;;;;;;;;;;;;;;;;5050501;28;20270;-60
2023/05/24 09:29:47;;;;;;;;;;;;;;;;;;5061743;28;20293;-59
2023/05/24 09:32:14;;;;;;;;;;;;;;;;;;5066318;28;19928;-59
2023/05/24 09:34:40;;;;;;;;;;;;;;;;;;5065060;28;19931;-59
2023/05/24 09:37:07;;;;;;;;;;;;;;;;;;5058868;28;20396;-59
2023/05/24 09:39:33;;;;;;;;;;;;;;;;;;5064070;28;19943;-59
2023/05/24 09:42:00;;;;;;;;;;;;;;;;;;5066398;28;19931;-60
2023/05/24 09:44:26;;;;;;;;;;;;;;;;;;5058118;28;19935;-58
2023/05/24 09:46:53;;;;;;;;;;;;;;;;;;5056693;28;19925;-58
2023/05/24 09:49:20;;;;;;;;;;;;;;;;;;5062629;28;20392;-58
2023/05/24 09:51:47;;;;;;;;;;;;;;;;;;5066054;28;19927;-58
2023/05/24 09:54:13;;;;;;;;;;;;;;;;;;5064940;28;19924;-58
2023/05/24 09:56:40;;;;;;;;;;;;;;;;;;5053648;28;19921;-57
2023/05/24 09:59:08;;;;;;;;;;;;;;;;;;5069436;28;19927;-57
2023/05/24 10:01:35;;;;;;;;;;;;;;;;;;5054432;28;19925;-57
2023/05/24 10:04:01;;;;;;;;;;;;;;;;;;5065708;28;20938;-59
2023/05/24 10:06:28;;;;;;;;;;;;;;;;;;5057843;28;19931;-58
2023/05/24 10:08:54;;;;;;;;;;;;;;;;;;5052360;28;19920;-54
2023/05/24 10:11:21;;;;;;;;;;;;;;;;;;5065424;28;20030;-56
2023/05/24 10:13:47;;;;;;;;;;;;;;;;;;5057703;28;19920;-55
2023/05/24 10:16:14;;;;;;;;;;;;;;;;;;5065592;28;19927;-56
2023/05/24 10:18:40;;;;;;;;;;;;;;;;;;5054336;28;19932;-58
2023/05/24 10:21:08;;;;;;;;;;;;;;;;;;5064923;28;19927;-56
2023/05/24 10:23:35;;;;;;;;;;;;;;;;;;5061495;28;20342;-59
2023/05/24 10:26:02;;;;;;;;;;;;;;;;;;5062834;28;19924;-58
2023/05/24 10:28:29;;;;;;;;;;;;;;;;;;5055010;28;19988;-58
2023/05/24 10:30:55;;;;;;;;;;;;;;;;;;5053708;28;20130;-58
2023/05/24 10:33:22;;;;;;;;;;;;;;;;;;5056219;28;19927;-59
2023/05/24 10:35:48;;;;;;;;;;;;;;;;;;5061857;28;19927;-59
2023/05/24 10:38:15;;;;;;;;;;;;;;;;;;5061258;28;19955;-60
2023/05/24 10:40:42;;;;;;;;;;;;;;;;;;5059831;28;20285;-59
2023/05/24 10:43:09;;;;;;;;;;;;;;;;;;5076039;28;19920;-59
2023/05/24 10:45:35;;;;;;;;;;;;;;;;;;5068899;28;19921;-59
2023/05/24 10:48:02;;;;;;;;;;;;;;;;;;5066812;28;20281;-59
2023/05/24 10:50:28;;;;;;;;;;;;;;;;;;5056476;28;19925;-59
2023/05/24 10:52:55;;;;;;;;;;;;;;;;;;5066689;28;19920;-59
2023/05/24 10:55:21;;;;;;;;;;;;;;;;;;5055783;28;20508;-59
2023/05/24 10:57:48;;;;;;;;;;;;;;;;;;5060527;28;19920;-59
2023/05/24 11:00:15;;;;;;;;;;;;;;;;;;5063296;28;19928;-57
2023/05/24 11:02:42;;;;;;;;;;;;;;;;;;5075248;28;19924;-59
2023/05/24 11:05:08;;;;;;;;;;;;;;;;;;5075430;28;19928;-58
2023/05/24 11:07:35;;;;;;;;;;;;;;;;;;5062769;28;19931;-59
2023/05/24 11:10:05;;;;;;;;;;;;;;;;;;5057464;28;19924;-57
2023/05/24 11:12:37;;;;;;;;;;;;;;;;;;5064390;28;20390;-59
2023/05/24 11:15:03;;;;;;;;;;;;;;;;;;5065139;28;19924;-59
2023/05/24 11:17:30;;;;;;;;;;;;;;;;;;5066695;28;20408;-59
2023/05/24 11:19:56;;;;;;;;;;;;;;;;;;5064116;28;19924;-59
2023/05/24 11:22:23;;;;;;;;;;;;;;;;;;5070939;28;19936;-59
2023/05/24 11:24:50;;;;;;;;;;;;;;;;;;5065179;28;20382;-59
2023/05/24 11:27:16;;;;;;;;;;;;;;;;;;5065403;28;19935;-59
2023/05/24 11:29:43;;;;;;;;;;;;;;;;;;5062803;28;20357;-58
2023/05/24 11:32:10;;;;;;;;;;;;;;;;;;5066166;28;19928;-59
2023/05/24 11:34:36;;;;;;;;;;;;;;;;;;5066846;28;19927;-57
2023/05/24 11:37:04;;;;;;;;;;;;;;;;;;5066397;28;19997;-59
2023/05/24 11:39:31;;;;;;;;;;;;;;;;;;5068193;28;19931;-57
2023/05/24 11:41:57;;;;;;;;;;;;;;;;;;5057565;28;19950;-57
2023/05/24 11:44:24;;;;;;;;;;;;;;;;;;5063972;28;19921;-57
2023/05/24 11:46:51;;;;;;;;;;;;;;;;;;5061610;28;19932;-58
2023/05/24 11:49:17;;;;;;;;;;;;;;;;;;5068236;28;19958;-58
2023/05/24 11:51:47;;;;;;;;;;;;;;;;;;5064391;28;19931;-58
2023/05/24 11:54:13;;;;;;;;;;;;;;;;;;5068980;28;19931;-61
2023/05/24 11:56:40;;;;;;;;;;;;;;;;;;5069226;28;20377;-61
2023/05/24 11:59:06;;;;;;;;;;;;;;;;;;5066746;28;19956;-61
2023/05/24 12:01:33;;;;;;;;;;;;;;;;;;5060240;28;19936;-61
2023/05/24 12:03:59;;;;;;;;;;;;;;;;;;5058573;28;20400;-59
2023/05/24 12:06:26;;;;;;;;;;;;;;;;;;5063451;28;19928;-60
2023/05/24 12:08:53;;;;;;;;;;;;;;;;;;5064050;28;19921;-60
2023/05/24 12:11:19;;;;;;;;;;;;;;;;;;5066410;28;19924;-60
2023/05/24 12:13:46;;;;;;;;;;;;;;;;;;5065851;28;20285;-60
2023/05/24 12:16:13;;;;;;;;;;;;;;;;;;5065784;28;19936;-61
2023/05/24 12:18:42;;;;;;;;;;;;;;;;;;5065437;28;20681;-59
2023/05/24 12:21:09;;;;;;;;;;;;;;;;;;5059393;28;19921;-58
2023/05/24 12:23:36;;;;;;;;;;;;;;;;;;5063421;28;19927;-61
2023/05/24 12:26:02;;;;;;;;;;;;;;;;;;5066129;28;19925;-60
2023/05/24 12:28:29;;;;;;;;;;;;;;;;;;5056618;28;19925;-58
2023/05/24 12:30:55;;;;;;;;;;;;;;;;;;5065230;28;19921;-58
2023/05/24 12:33:22;;;;;;;;;;;;;;;;;;5063765;28;20395;-58
2023/05/24 12:35:49;;;;;;;;;;;;;;;;;;5067313;28;19920;-58
2023/05/24 12:38:21;;;;;;;;;;;;;;;;;;5062828;28;19921;-58
2023/05/24 12:40:48;;;;;;;;;;;;;;;;;;5069130;28;19931;-58
2023/05/24 12:43:15;;;;;;;;;;;;;;;;;;5064841;28;19925;-62
2023/05/24 12:45:41;;;;;;;;;;;;;;;;;;5068016;28;19920;-60
2023/05/24 12:48:08;;;;;;;;;;;;;;;;;;5060772;28;20011;-58
2023/05/24 12:50:34;;;;;;;;;;;;;;;;;;5058627;28;19921;-58
2023/05/24 12:53:01;;;;;;;;;;;;;;;;;;5074040;28;19920;-58
2023/05/24 12:55:27;;;;;;;;;;;;;;;;;;5060527;28;19928;-58
2023/05/24 12:57:54;;;;;;;;;;;;;;;;;;5068778;28;19924;-58
2023/05/24 13:00:21;;;;;;;;;;;;;;;;;;5064882;28;19927;-58
2023/05/24 13:02:47;;;;;;;;;;;;;;;;;;5060111;28;19930;-58
2023/05/24 13:05:14;;;;;;;;;;;;;;;;;;5056859;28;19928;-58
2023/05/24 13:07:41;;;;;;;;;;;;;;;;;;5060349;28;19924;-58
2023/05/24 13:10:08;;;;;;;;;;;;;;;;;;5061998;28;19931;-59
2023/05/24 13:12:35;;;;;;;;;;;;;;;;;;5064855;28;19939;-58
2023/05/24 13:15:02;;;;;;;;;;;;;;;;;;5071121;28;20416;-58
2023/05/24 13:17:28;;;;;;;;;;;;;;;;;;5065292;28;19920;-58
2023/05/24 13:19:56;;;;;;;;;;;;;;;;;;5060770;28;19931;-61
2023/05/24 13:22:22;;;;;;;;;;;;;;;;;;5063687;28;19920;-61
2023/05/24 13:24:49;;;;;;;;;;;;;;;;;;5058225;28;19920;-57
2023/05/24 13:27:15;;;;;;;;;;;;;;;;;;5063524;28;19925;-58
2023/05/24 13:29:42;;;;;;;;;;;;;;;;;;5070339;28;19920;-58
2023/05/24 13:32:08;;;;;;;;;;;;;;;;;;5067279;28;19939;-58
2023/05/24 13:34:35;;;;;;;;;;;;;;;;;;5067537;28;19920;-58
2023/05/24 13:37:02;;;;;;;;;;;;;;;;;;5058822;28;20301;-58
2023/05/24 13:39:28;;;;;;;;;;;;;;;;;;5062620;28;19925;-59
2023/05/24 13:41:55;;;;;;;;;;;;;;;;;;5052139;28;19921;-59
2023/05/24 13:44:22;;;;;;;;;;;;;;;;;;5067392;28;19920;-59
2023/05/24 13:46:48;;;;;;;;;;;;;;;;;;5059535;28;19920;-58
2023/05/24 13:49:16;;;;;;;;;;;;;;;;;;5050757;28;19928;-59
2023/05/24 13:51:42;;;;;;;;;;;;;;;;;;5069365;28;19924;-59
2023/05/24 13:54:09;;;;;;;;;;;;;;;;;;5061132;28;19928;-58
2023/05/24 13:56:35;;;;;;;;;;;;;;;;;;5067543;28;19920;-59
2023/05/24 13:59:02;;;;;;;;;;;;;;;;;;5070139;28;20293;-59
2023/05/24 14:01:29;;;;;;;;;;;;;;;;;;5066612;28;19925;-59
2023/05/24 14:03:55;;;;;;;;;;;;;;;;;;5061560;28;19932;-59
2023/05/24 14:06:22;;;;;;;;;;;;;;;;;;5062820;28;19925;-59
2023/05/24 14:08:48;;;;;;;;;;;;;;;;;;5061700;28;19932;-59
2023/05/24 14:11:15;;;;;;;;;;;;;;;;;;5065276;28;19928;-59
2023/05/24 14:13:41;;;;;;;;;;;;;;;;;;5060087;28;20293;-61
2023/05/24 14:16:08;;;;;;;;;;;;;;;;;;5068227;28;19940;-61
2023/05/24 14:18:34;;;;;;;;;;;;;;;;;;5066943;28;20297;-61
2023/05/24 14:21:01;;;;;;;;;;;;;;;;;;5068182;28;19920;-61
2023/05/24 14:23:30;;;;;;;;;;;;;;;;;;5068116;28;20385;-61
2023/05/24 14:25:57;;;;;;;;;;;;;;;;;;5067415;28;19920;-61
2023/05/24 14:28:23;;;;;;;;;;;;;;;;;;5059802;28;19927;-61
2023/05/24 14:30:50;;;;;;;;;;;;;;;;;;5064778;28;19928;-61
2023/05/24 14:33:16;;;;;;;;;;;;;;;;;;5061942;28;19924;-60
2023/05/24 14:35:43;;;;;;;;;;;;;;;;;;5054496;28;19932;-43
2023/05/24 14:38:10;;;;;;;;;;;;;;;;;;5061213;28;20288;-43
2023/05/24 14:40:37;;;;;;;;;;;;;;;;;;5055065;28;19928;-43
2023/05/24 14:43:04;;;;;;;;;;;;;;;;;;5053753;28;20394;-59
2023/05/24 14:45:31;;;;;;;;;;;;;;;;;;5052405;28;19928;-59
2023/05/24 14:47:57;;;;;;;;;;;;;;;;;;5053732;28;19920;-58
2023/05/24 14:50:24;;;;;;;;;;;;;;;;;;5059422;28;19921;-57
2023/05/24 14:52:50;;;;;;;;;;;;;;;;;;5074236;28;19920;-58
2023/05/24 14:55:17;;;;;;;;;;;;;;;;;;5072922;28;19921;-59
2023/05/24 14:57:43;;;;;;;;;;;;;;;;;;5060946;28;19932;-59
2023/05/24 15:00:10;;;;;;;;;;;;;;;;;;5052736;28;19927;-58
2023/05/24 15:02:37;;;;;;;;;;;;;;;;;;5054965;28;19940;-57
2023/05/24 15:05:03;;;;;;;;;;;;;;;;;;5072444;28;19920;-57
2023/05/24 15:07:30;;;;;;;;;;;;;;;;;;5071605;28;19943;-58
2023/05/24 15:09:57;;;;;;;;;;;;;;;;;;5072453;28;19920;-57
2023/05/24 15:12:23;;;;;;;;;;;;;;;;;;5072285;28;19920;-57
2023/05/24 15:14:50;;;;;;;;;;;;;;;;;;5072198;28;20289;-57
2023/05/24 15:17:16;;;;;;;;;;;;;;;;;;5068453;28;19927;-57
2023/05/24 15:19:43;;;;;;;;;;;;;;;;;;5074897;28;19920;-57
2023/05/24 15:22:09;;;;;;;;;;;;;;;;;;5076331;28;20300;-56
2023/05/24 15:24:36;;;;;;;;;;;;;;;;;;5059122;28;19928;-51
2023/05/24 15:27:02;;;;;;;;;;;;;;;;;;5068217;28;19920;-52
2023/05/24 15:29:29;;;;;;;;;;;;;;;;;;5063432;28;19927;-45
2023/05/24 15:31:57;;;;;;;;;;;;;;;;;;5065142;28;20397;-58
2023/05/24 15:34:23;;;;;;;;;;;;;;;;;;5073067;28;19921;-58
2023/05/24 15:36:50;;;;;;;;;;;;;;;;;;5070962;28;20380;-58
2023/05/24 15:39:17;;;;;;;;;;;;;;;;;;5065498;28;19920;-58
2023/05/24 15:41:43;;;;;;;;;;;;;;;;;;5074681;28;19927;-58
2023/05/24 15:44:09;;;;;;;;;;;;;;;;;;5075616;28;19920;-58
2023/05/24 15:46:36;;;;;;;;;;;;;;;;;;5075723;28;19920;-58
2023/05/24 15:49:04;;;;;;;;;;;;;;;;;;5072416;28;19927;-58
2023/05/24 15:51:30;;;;;;;;;;;;;;;;;;5075492;28;19920;-58
2023/05/24 15:53:56;;;;;;;;;;;;;;;;;;5075442;28;19927;-58
2023/05/24 15:56:23;;;;;;;;;;;;;;;;;;5074536;28;19920;-58
2023/05/24 15:58:49;;;;;;;;;;;;;;;;;;5055088;28;19927;-58
2023/05/24 16:01:16;;;;;;;;;;;;;;;;;;5062833;28;19921;-58
2023/05/24 16:03:43;;;;;;;;;;;;;;;;;;5051419;28;19920;-59
2023/05/24 16:06:09;;;;;;;;;;;;;;;;;;5060972;28;19933;-58
2023/05/24 16:08:36;;;;;;;;;;;;;;;;;;5073195;28;19924;-59
2023/05/24 16:11:06;;;;;;;;;;;;;;;;;;5070183;28;19927;-59
2023/05/24 16:13:33;;;;;;;;;;;;;;;;;;5073078;28;19927;-59
2023/05/24 16:16:00;;;;;;;;;;;;;;;;;;5069220;28;20404;-59
2023/05/24 16:18:30;;;;;;;;;;;;;;;;;;5064899;28;19921;-59
2023/05/24 16:20:56;;;;;;;;;;;;;;;;;;5054869;28;19920;-59
2023/05/24 16:23:23;;;;;;;;;;;;;;;;;;5054735;28;19920;-59
2023/05/24 16:25:49;;;;;;;;;;;;;;;;;;5054658;28;20280;-58
2023/05/24 16:28:16;;;;;;;;;;;;;;;;;;5068484;28;19921;-58
2023/05/24 16:30:42;;;;;;;;;;;;;;;;;;5074587;28;19927;-58
2023/05/24 16:33:09;;;;;;;;;;;;;;;;;;5071665;28;20361;-58
2023/05/24 16:35:36;;;;;;;;;;;;;;;;;;5074639;28;19927;-58
2023/05/24 16:38:02;;;;;;;;;;;;;;;;;;5072899;28;20270;-59
2023/05/24 16:40:28;;;;;;;;;;;;;;;;;;5074806;28;19925;-59
2023/05/24 16:42:55;;;;;;;;;;;;;;;;;;5074789;28;20373;-58